createdAt,value
2022-07-25T00:01:52.548Z,21.60
2022-07-25T00:04:19.772Z,21.60
2022-07-25T00:06:46.660Z,21.50
2022-07-25T00:09:13.646Z,21.50
2022-07-25T00:11:40.494Z,21.50
2022-07-25T00:14:08.073Z,21.50
2022-07-25T00:16:35.079Z,21.50
2022-07-25T00:19:02.219Z,21.40
2022-07-25T00:21:29.034Z,21.30
2022-07-25T00:23:55.868Z,21.30
2022-07-25T00:26:22.670Z,21.30
2022-07-25T00:28:49.525Z,21.20
2022-07-25T00:33:43.647Z,21.10
2022-07-25T00:36:10.767Z,21.00
2022-07-25T00:38:37.665Z,21.00
2022-07-25T00:41:05.025Z,20.90
2022-07-25T00:43:32.052Z,20.80
2022-07-25T00:45:59.998Z,20.70
2022-07-25T00:48:28.274Z,20.70
2022-07-25T00:50:56.399Z,20.70
2022-07-25T00:53:23.901Z,20.70
2022-07-25T00:55:51.364Z,20.70
2022-07-25T00:58:18.906Z,20.70
2022-07-25T01:00:45.945Z,20.70
2022-07-25T01:03:13.419Z,20.70
2022-07-25T01:05:40.583Z,20.70
2022-07-25T01:08:08.233Z,20.70
2022-07-25T01:10:35.566Z,20.60
2022-07-25T01:13:02.336Z,20.60
2022-07-25T01:15:29.206Z,20.60
2022-07-25T01:17:56.115Z,20.60
2022-07-25T01:20:24.785Z,20.50
2022-07-25T01:22:52.056Z,20.50
2022-07-25T01:25:19.716Z,20.50
2022-07-25T01:27:51.370Z,20.40
2022-07-25T01:30:22.477Z,20.40
2022-07-25T01:32:49.269Z,20.40
2022-07-25T01:35:16.405Z,20.40
2022-07-25T01:37:45.918Z,20.30
2022-07-25T01:40:14.585Z,20.30
2022-07-25T01:42:42.362Z,20.20
2022-07-25T01:45:10.091Z,20.20
2022-07-25T01:47:36.894Z,20.20
2022-07-25T01:50:05.238Z,20.10
2022-07-25T01:52:32.043Z,20.10
2022-07-25T01:54:58.990Z,20.00
2022-07-25T01:57:30.797Z,20.00
2022-07-25T01:59:58.681Z,20.10
2022-07-25T02:02:25.613Z,20.00
2022-07-25T02:04:52.581Z,20.00
2022-07-25T02:07:19.608Z,20.00
2022-07-25T02:09:46.405Z,20.10
2022-07-25T02:12:13.152Z,20.00
2022-07-25T02:14:40.037Z,20.00
2022-07-25T02:17:06.903Z,20.00
2022-07-25T02:19:34.327Z,20.00
2022-07-25T02:22:01.105Z,20.00
2022-07-25T02:24:27.950Z,20.00
2022-07-25T02:26:54.732Z,20.00
2022-07-25T02:29:21.862Z,20.00
2022-07-25T02:31:49.045Z,20.00
2022-07-25T02:34:15.790Z,20.00
2022-07-25T02:36:42.609Z,20.00
2022-07-25T02:39:09.385Z,20.00
2022-07-25T02:41:36.232Z,20.00
2022-07-25T02:44:03.166Z,20.00
2022-07-25T02:46:30.314Z,20.10
2022-07-25T02:48:57.281Z,20.10
2022-07-25T02:51:24.073Z,20.00
2022-07-25T02:53:59.297Z,19.90
2022-07-25T02:56:30.079Z,19.90
2022-07-25T02:58:59.144Z,19.80
2022-07-25T03:01:26.027Z,19.80
2022-07-25T03:03:52.828Z,19.80
2022-07-25T03:06:19.578Z,19.80
2022-07-25T03:08:46.353Z,19.70
2022-07-25T03:11:14.208Z,19.70
2022-07-25T03:13:41.023Z,19.60
2022-07-25T03:16:08.340Z,19.60
2022-07-25T03:18:35.190Z,19.60
2022-07-25T03:21:01.950Z,19.60
2022-07-25T03:23:29.891Z,19.60
2022-07-25T03:25:57.267Z,19.50
2022-07-25T03:28:24.776Z,19.50
2022-07-25T03:30:52.734Z,19.60
2022-07-25T03:33:19.882Z,19.60
2022-07-25T03:35:46.876Z,19.60
2022-07-25T03:38:13.828Z,19.60
2022-07-25T03:40:40.643Z,19.50
2022-07-25T03:43:07.445Z,19.60
2022-07-25T03:45:34.518Z,19.50
2022-07-25T03:48:01.444Z,19.50
2022-07-25T03:50:28.299Z,19.50
2022-07-25T03:52:55.084Z,19.60
2022-07-25T03:55:21.885Z,19.60
2022-07-25T03:57:48.596Z,19.60
2022-07-25T04:00:15.517Z,19.60
2022-07-25T04:02:42.372Z,19.60
2022-07-25T04:05:10.046Z,19.60
2022-07-25T04:07:37.532Z,19.60
2022-07-25T04:10:06.165Z,19.60
2022-07-25T04:12:33.132Z,19.70
2022-07-25T04:15:00.090Z,19.70
2022-07-25T04:17:26.873Z,19.70
2022-07-25T04:19:53.735Z,19.70
2022-07-25T04:22:20.561Z,19.70
2022-07-25T04:24:47.278Z,19.70
2022-07-25T04:27:14.241Z,19.80
2022-07-25T04:29:41.007Z,19.80
2022-07-25T04:32:07.929Z,19.80
2022-07-25T04:34:34.733Z,19.80
2022-07-25T04:37:01.515Z,19.90
2022-07-25T04:39:28.244Z,19.90
2022-07-25T04:41:54.942Z,19.90
2022-07-25T04:44:21.682Z,20.00
2022-07-25T04:46:48.388Z,20.00
2022-07-25T04:49:15.251Z,20.10
2022-07-25T04:51:42.328Z,20.10
2022-07-25T04:54:09.698Z,20.20
2022-07-25T04:56:36.857Z,20.20
2022-07-25T04:59:06.738Z,20.30
2022-07-25T05:01:34.490Z,20.30
2022-07-25T05:04:01.393Z,20.40
2022-07-25T05:06:28.244Z,20.50
2022-07-25T05:08:55.442Z,20.50
2022-07-25T05:11:22.251Z,20.60
2022-07-25T05:13:48.987Z,20.70
2022-07-25T05:16:15.949Z,20.80
2022-07-25T05:18:42.833Z,20.80
2022-07-25T05:21:12.949Z,20.90
2022-07-25T05:23:41.119Z,20.90
2022-07-25T05:26:07.898Z,21.00
2022-07-25T05:28:34.659Z,21.10
2022-07-25T05:31:01.435Z,21.20
2022-07-25T05:33:28.258Z,21.30
2022-07-25T05:35:55.026Z,21.40
2022-07-25T05:38:21.822Z,21.50
2022-07-25T05:40:49.072Z,21.50
2022-07-25T05:43:15.851Z,21.60
2022-07-25T05:45:42.645Z,21.70
2022-07-25T05:48:09.464Z,21.80
2022-07-25T05:50:39.451Z,22.00
2022-07-25T05:53:06.543Z,22.00
2022-07-25T05:55:33.303Z,22.20
2022-07-25T05:58:00.263Z,22.30
2022-07-25T06:00:29.327Z,22.40
2022-07-25T06:03:00.311Z,22.50
2022-07-25T06:05:27.643Z,22.60
2022-07-25T06:07:54.403Z,22.70
2022-07-25T06:10:21.586Z,22.70
2022-07-25T06:12:48.568Z,22.80
2022-07-25T06:15:22.284Z,22.90
2022-07-25T06:17:50.110Z,23.00
2022-07-25T06:20:16.913Z,23.00
2022-07-25T06:22:43.789Z,23.30
2022-07-25T06:25:10.959Z,23.20
2022-07-25T06:27:38.924Z,23.20
2022-07-25T06:30:18.622Z,23.30
2022-07-25T06:32:47.204Z,23.40
2022-07-25T06:35:14.009Z,23.40
2022-07-25T06:37:40.800Z,23.50
2022-07-25T06:40:08.454Z,23.60
2022-07-25T06:42:40.006Z,23.70
2022-07-25T06:45:09.654Z,23.80
2022-07-25T06:47:37.586Z,23.80
2022-07-25T06:50:05.975Z,24.00
2022-07-25T06:52:34.787Z,24.00
2022-07-25T06:55:02.355Z,24.20
2022-07-25T06:57:29.146Z,24.20
2022-07-25T06:59:55.937Z,24.40
2022-07-25T07:02:22.713Z,24.60
2022-07-25T07:04:49.781Z,25.50
2022-07-25T07:07:16.769Z,26.80
2022-07-25T07:09:44.083Z,28.10
2022-07-25T07:12:11.227Z,29.30
2022-07-25T07:17:05.780Z,30.40
2022-07-25T07:19:32.791Z,32.50
2022-07-25T07:22:00.056Z,33.40
2022-07-25T07:24:26.897Z,34.00
2022-07-25T07:26:55.089Z,33.90
2022-07-25T07:29:21.937Z,34.00
2022-07-25T07:31:48.845Z,34.60
2022-07-25T07:34:16.421Z,34.80
2022-07-25T07:36:43.656Z,34.70
2022-07-25T07:39:11.557Z,34.60
2022-07-25T07:44:05.807Z,35.40
2022-07-25T07:46:32.666Z,35.60
2022-07-25T07:48:59.543Z,35.60
2022-07-25T07:51:26.376Z,36.40
2022-07-25T07:54:11.656Z,36.90
2022-07-25T07:56:39.392Z,37.00
2022-07-25T07:59:06.666Z,37.00
2022-07-25T08:01:34.474Z,37.20
2022-07-25T08:04:01.229Z,37.60
2022-07-25T08:06:28.007Z,38.00
2022-07-25T08:16:16.594Z,39.50
2022-07-25T08:18:43.397Z,39.80
2022-07-25T08:21:10.837Z,40.20
2022-07-25T08:23:40.587Z,40.70
2022-07-25T08:26:07.783Z,41.10
2022-07-25T08:28:34.634Z,41.90
2022-07-25T08:31:01.689Z,42.00
2022-07-25T08:33:28.692Z,41.90
2022-07-25T08:35:58.538Z,42.10
2022-07-25T08:38:27.011Z,42.30
2022-07-25T08:40:55.637Z,42.00
2022-07-25T08:43:22.447Z,42.50
2022-07-25T08:45:51.061Z,42.50
2022-07-25T08:48:23.004Z,42.90
2022-07-25T08:50:51.197Z,42.90
2022-07-25T08:53:36.079Z,42.60
2022-07-25T08:56:14.850Z,43.20
2022-07-25T08:58:44.566Z,43.30
2022-07-25T09:01:13.034Z,43.40
2022-07-25T09:03:40.402Z,43.50
2022-07-25T09:06:17.308Z,43.10
2022-07-25T09:08:59.440Z,43.20
2022-07-25T09:11:28.032Z,43.50
2022-07-25T09:14:10.343Z,43.60
2022-07-25T09:16:44.409Z,43.60
2022-07-25T09:19:16.141Z,43.60
2022-07-25T09:21:45.703Z,43.00
2022-07-25T09:24:18.696Z,42.70
2022-07-25T09:26:50.848Z,42.70
2022-07-25T09:29:27.958Z,43.20
2022-07-25T09:31:56.918Z,43.60
2022-07-25T09:34:38.456Z,43.40
2022-07-25T09:37:12.525Z,43.30
2022-07-25T09:39:48.286Z,43.10
2022-07-25T09:42:20.138Z,42.90
2022-07-25T09:44:59.257Z,43.00
2022-07-25T09:47:26.019Z,43.40
2022-07-25T09:49:53.483Z,43.70
2022-07-25T09:52:20.306Z,43.70
2022-07-25T09:54:47.363Z,43.50
2022-07-25T09:57:17.054Z,43.10
2022-07-25T09:59:49.341Z,43.00
2022-07-25T10:02:41.823Z,43.30
2022-07-25T10:05:26.699Z,43.20
2022-07-25T10:07:55.307Z,43.00
2022-07-25T10:10:30.514Z,42.70
2022-07-25T10:13:10.699Z,43.00
2022-07-25T10:15:41.802Z,42.90
2022-07-25T10:18:08.732Z,42.60
2022-07-25T10:20:36.165Z,42.70
2022-07-25T10:23:03.326Z,42.80
2022-07-25T10:25:30.497Z,42.90
2022-07-25T10:28:10.034Z,42.60
2022-07-25T10:30:38.776Z,42.40
2022-07-25T10:33:15.593Z,42.20
2022-07-25T10:35:42.991Z,41.70
2022-07-25T10:38:10.092Z,40.80
2022-07-25T10:46:02.315Z,40.00
2022-07-25T10:53:33.669Z,36.90
2022-07-25T10:56:13.485Z,36.60
2022-07-25T10:58:51.468Z,36.50
2022-07-25T11:01:28.368Z,36.20
2022-07-25T11:03:57.528Z,36.10
2022-07-25T11:06:35.241Z,36.00
2022-07-25T11:09:27.231Z,35.90
2022-07-25T11:11:59.280Z,35.60
2022-07-25T11:17:20.536Z,35.50
2022-07-25T11:20:21.003Z,35.40
2022-07-25T11:22:55.495Z,35.10
2022-07-25T11:25:23.365Z,35.10
2022-07-25T11:28:00.822Z,35.00
2022-07-25T11:30:31.098Z,35.00
2022-07-25T11:33:01.393Z,35.00
2022-07-25T11:35:33.018Z,35.00
2022-07-25T11:38:02.307Z,35.00
2022-07-25T11:40:31.458Z,34.90
2022-07-25T11:42:59.668Z,34.90
2022-07-25T11:45:29.590Z,34.60
2022-07-25T11:48:08.039Z,34.60
2022-07-25T11:50:41.021Z,34.60
2022-07-25T11:53:11.251Z,34.50
2022-07-25T11:55:40.972Z,34.50
2022-07-25T11:58:08.677Z,34.60
2022-07-25T12:00:39.938Z,34.60
2022-07-25T12:03:18.688Z,34.60
2022-07-25T12:05:47.338Z,34.50
2022-07-25T12:08:18.405Z,34.40
2022-07-25T12:10:47.657Z,34.50
2022-07-25T12:13:30.493Z,34.40
2022-07-25T12:16:00.433Z,34.40
2022-07-25T12:18:28.130Z,34.40
2022-07-25T12:20:54.955Z,34.30
2022-07-25T12:23:22.160Z,34.20
2022-07-25T12:25:49.597Z,34.20
2022-07-25T12:28:16.914Z,34.20
2022-07-25T12:30:45.208Z,34.20
2022-07-25T12:33:13.061Z,34.20
2022-07-25T12:35:44.291Z,34.20
2022-07-25T12:38:11.429Z,34.20
2022-07-25T12:40:38.283Z,34.20
2022-07-25T12:43:05.181Z,34.20
2022-07-25T12:45:31.963Z,34.20
2022-07-25T12:47:58.747Z,34.30
2022-07-25T12:50:26.076Z,34.20
2022-07-25T12:52:53.463Z,34.20
2022-07-25T12:55:21.505Z,34.20
2022-07-25T12:57:48.958Z,34.20
2022-07-25T13:00:18.525Z,34.20
2022-07-25T13:02:45.459Z,34.20
2022-07-25T13:05:12.478Z,34.10
2022-07-25T13:07:39.339Z,34.10
2022-07-25T13:10:07.004Z,34.10
2022-07-25T13:12:33.944Z,34.00
2022-07-25T13:15:01.620Z,34.00
2022-07-25T13:17:28.538Z,33.90
2022-07-25T13:19:56.506Z,33.80
2022-07-25T13:22:24.455Z,33.80
2022-07-25T13:24:51.514Z,33.80
2022-07-25T13:27:19.483Z,33.80
2022-07-25T13:29:47.094Z,33.80
2022-07-25T13:32:14.268Z,33.70
2022-07-25T13:34:41.087Z,33.60
2022-07-25T13:37:07.862Z,33.60
2022-07-25T13:39:35.721Z,33.70
2022-07-25T13:42:03.224Z,33.70
2022-07-25T13:44:30.198Z,33.70
2022-07-25T13:46:58.602Z,33.70
2022-07-25T13:49:25.693Z,33.70
2022-07-25T13:51:52.459Z,33.60
2022-07-25T13:54:19.212Z,33.60
2022-07-25T13:56:45.928Z,33.60
2022-07-25T13:59:18.823Z,33.50
2022-07-25T14:01:48.061Z,33.50
2022-07-25T14:04:14.891Z,33.60
2022-07-25T14:06:42.107Z,33.50
2022-07-25T14:09:09.506Z,33.50
2022-07-25T14:11:36.664Z,33.40
2022-07-25T14:14:03.488Z,33.50
2022-07-25T14:16:30.581Z,33.60
2022-07-25T14:18:57.459Z,33.60
2022-07-25T14:21:24.372Z,33.60
2022-07-25T14:23:52.368Z,33.60
2022-07-25T14:26:19.199Z,33.60
2022-07-25T14:28:46.277Z,33.50
2022-07-25T14:31:13.095Z,33.50
2022-07-25T14:33:40.564Z,33.40
2022-07-25T14:36:08.438Z,33.40
2022-07-25T14:38:35.688Z,33.30
2022-07-25T14:41:04.328Z,33.20
2022-07-25T14:43:33.453Z,33.20
2022-07-25T14:46:00.257Z,33.30
2022-07-25T14:48:27.069Z,33.20
2022-07-25T14:50:54.675Z,33.20
2022-07-25T14:53:21.455Z,33.30
2022-07-25T14:55:48.191Z,33.30
2022-07-25T14:58:15.680Z,33.20
2022-07-25T15:00:43.589Z,33.20
2022-07-25T15:03:10.525Z,33.20
2022-07-25T15:05:38.611Z,33.20
2022-07-25T15:08:06.581Z,33.10
2022-07-25T15:10:33.749Z,33.00
2022-07-25T15:13:28.279Z,32.90
2022-07-25T15:15:47.878Z,32.80
2022-07-25T15:18:14.851Z,32.80
2022-07-25T15:20:41.734Z,32.80
2022-07-25T15:23:08.477Z,32.70
2022-07-25T15:26:00.644Z,32.60
2022-07-25T15:28:22.107Z,32.70
2022-07-25T15:30:50.400Z,32.70
2022-07-25T15:33:20.310Z,32.60
2022-07-25T15:35:48.338Z,32.60
2022-07-25T15:38:16.146Z,32.70
2022-07-25T15:40:43.708Z,32.60
2022-07-25T15:43:11.072Z,32.60
2022-07-25T15:45:39.573Z,32.60
2022-07-25T15:48:10.601Z,32.60
2022-07-25T15:50:43.619Z,32.60
2022-07-25T15:53:10.793Z,32.50
2022-07-25T15:55:39.491Z,32.50
2022-07-25T15:58:07.001Z,32.40
2022-07-25T16:00:34.042Z,32.30
2022-07-25T16:03:00.974Z,32.20
2022-07-25T16:05:28.307Z,32.20
2022-07-25T16:07:55.508Z,32.20
2022-07-25T16:10:22.844Z,32.20
2022-07-25T16:12:49.576Z,32.20
2022-07-25T16:15:16.370Z,32.10
2022-07-25T16:17:43.101Z,32.00
2022-07-25T16:20:11.155Z,32.00
2022-07-25T16:22:39.356Z,32.00
2022-07-25T16:25:06.932Z,31.90
2022-07-25T16:27:33.661Z,31.80
2022-07-25T16:30:01.130Z,31.80
2022-07-25T16:32:27.920Z,31.80
2022-07-25T16:34:54.650Z,31.80
2022-07-25T16:37:21.511Z,31.80
2022-07-25T16:39:48.272Z,31.80
2022-07-25T16:42:15.206Z,31.90
2022-07-25T16:44:42.318Z,31.90
2022-07-25T16:47:09.305Z,31.90
2022-07-25T16:49:36.120Z,31.80
2022-07-25T16:52:02.939Z,31.80
2022-07-25T16:54:29.802Z,31.80
2022-07-25T16:56:59.625Z,31.70
2022-07-25T16:59:26.926Z,31.70
2022-07-25T17:01:54.106Z,31.70
2022-07-25T17:04:21.059Z,31.70
2022-07-25T17:06:48.268Z,31.60
2022-07-25T17:09:15.237Z,31.60
2022-07-25T17:11:41.979Z,31.60
2022-07-25T17:14:08.837Z,31.50
2022-07-25T17:16:35.654Z,31.40
2022-07-25T17:19:03.265Z,31.40
2022-07-25T17:21:30.033Z,31.30
2022-07-25T17:23:56.909Z,31.20
2022-07-25T17:26:23.892Z,31.10
2022-07-25T17:28:50.725Z,31.00
2022-07-25T17:31:17.586Z,31.00
2022-07-25T17:33:44.406Z,31.10
2022-07-25T17:36:11.482Z,31.10
2022-07-25T17:38:38.411Z,31.10
2022-07-25T17:41:05.445Z,31.10
2022-07-25T17:43:32.297Z,31.10
2022-07-25T17:45:59.069Z,31.00
2022-07-25T17:48:26.192Z,31.00
2022-07-25T17:50:52.991Z,31.00
2022-07-25T17:53:19.779Z,31.00
2022-07-25T17:55:46.685Z,31.00
2022-07-25T17:58:13.581Z,31.00
2022-07-25T18:00:40.472Z,30.90
2022-07-25T18:03:07.507Z,30.90
2022-07-25T18:05:34.837Z,30.80
2022-07-25T18:08:03.066Z,30.80
2022-07-25T18:10:30.169Z,30.70
2022-07-25T18:12:57.103Z,30.60
2022-07-25T18:15:24.212Z,30.50
2022-07-25T18:17:50.958Z,30.50
2022-07-25T18:20:17.935Z,30.40
2022-07-25T18:22:45.386Z,30.20
2022-07-25T18:25:13.997Z,30.20
2022-07-25T18:27:42.333Z,30.10
2022-07-25T18:30:10.701Z,30.10
2022-07-25T18:32:38.609Z,30.00
2022-07-25T18:35:07.809Z,30.00
2022-07-25T18:37:35.409Z,29.90
2022-07-25T18:40:02.218Z,30.00
2022-07-25T18:42:30.072Z,29.80
2022-07-25T18:44:57.281Z,29.80
2022-07-25T18:47:32.218Z,29.70
2022-07-25T18:49:59.588Z,29.70
2022-07-25T18:52:26.550Z,29.60
2022-07-25T18:54:53.504Z,29.60
2022-07-25T18:57:20.487Z,29.60
2022-07-25T18:59:48.005Z,29.50
2022-07-25T19:02:14.825Z,29.50
2022-07-25T19:04:41.660Z,29.40
2022-07-25T19:07:09.182Z,29.40
2022-07-25T19:09:36.017Z,29.30
2022-07-25T19:12:02.963Z,29.30
2022-07-25T19:14:30.774Z,29.30
2022-07-25T19:16:58.843Z,29.30
2022-07-25T19:19:26.859Z,29.20
2022-07-25T19:21:53.695Z,29.20
2022-07-25T19:24:21.094Z,29.20
2022-07-25T19:26:49.035Z,29.20
2022-07-25T19:29:16.721Z,29.20
2022-07-25T19:31:44.596Z,29.20
2022-07-25T19:34:11.895Z,29.20
2022-07-25T19:36:38.931Z,29.10
2022-07-25T19:39:06.310Z,29.10
2022-07-25T19:41:33.524Z,29.10
2022-07-25T19:44:00.311Z,29.00
2022-07-25T19:46:31.038Z,29.00
2022-07-25T19:48:58.340Z,28.90
2022-07-25T19:51:25.466Z,28.90
2022-07-25T19:53:52.415Z,28.90
2022-07-25T19:56:19.680Z,28.90
2022-07-25T19:58:46.964Z,28.90
2022-07-25T20:01:13.854Z,28.80
2022-07-25T20:03:41.201Z,28.70
2022-07-25T20:06:08.965Z,28.60
2022-07-25T20:08:37.131Z,28.50
2022-07-25T20:11:03.953Z,28.50
2022-07-25T20:13:30.799Z,28.40
2022-07-25T20:15:58.677Z,28.30
2022-07-25T20:18:25.654Z,28.20
2022-07-25T20:20:52.808Z,28.10
2022-07-25T20:23:19.607Z,28.00
2022-07-25T20:25:46.358Z,27.90
2022-07-25T20:28:13.194Z,27.80
2022-07-25T20:30:40.338Z,27.80
2022-07-25T20:33:09.590Z,27.70
2022-07-25T20:35:38.126Z,27.60
2022-07-25T20:38:08.978Z,27.50
2022-07-25T20:40:42.899Z,27.50
2022-07-25T20:43:13.553Z,27.40
2022-07-25T20:45:40.398Z,27.40
2022-07-25T20:48:07.275Z,27.30
2022-07-25T20:50:36.725Z,27.30
2022-07-25T20:53:04.454Z,27.20
2022-07-25T20:55:31.417Z,27.20
2022-07-25T20:57:58.664Z,27.10
2022-07-25T21:00:27.623Z,27.10
2022-07-25T21:02:55.125Z,27.00
2022-07-25T21:05:22.495Z,27.00
2022-07-25T21:07:49.425Z,27.00
2022-07-25T21:10:16.434Z,26.90
2022-07-25T21:12:45.213Z,26.90
2022-07-25T21:15:13.027Z,26.90
2022-07-25T21:17:40.083Z,26.90
2022-07-25T21:20:08.711Z,26.80
2022-07-25T21:22:35.445Z,26.70
2022-07-25T21:25:02.190Z,26.70
2022-07-25T21:27:29.034Z,26.60
2022-07-25T21:29:55.864Z,26.60
2022-07-25T21:32:23.490Z,26.50
2022-07-25T21:34:50.410Z,26.50
2022-07-25T21:37:17.343Z,26.50
2022-07-25T21:39:44.377Z,26.50
2022-07-25T21:42:11.709Z,26.50
2022-07-25T21:44:39.439Z,26.40
2022-07-25T21:47:06.852Z,26.40
2022-07-25T21:49:52.424Z,26.30
2022-07-25T21:52:19.887Z,26.30
2022-07-25T21:54:57.161Z,26.20
2022-07-25T21:57:23.866Z,26.10
2022-07-25T21:59:50.828Z,26.10
2022-07-25T22:02:18.411Z,26.00
2022-07-25T22:04:45.196Z,26.00
2022-07-25T22:07:11.940Z,25.90
2022-07-25T22:09:38.682Z,25.90
2022-07-25T22:12:05.716Z,25.80
2022-07-25T22:14:32.686Z,25.80
2022-07-25T22:16:59.596Z,25.70
2022-07-25T22:19:26.465Z,25.70
2022-07-25T22:21:53.420Z,25.70
2022-07-25T22:24:20.292Z,25.70
2022-07-25T22:26:47.034Z,25.70
2022-07-25T22:29:13.783Z,25.80
2022-07-25T22:31:40.632Z,25.70
2022-07-25T22:34:07.554Z,25.70
2022-07-25T22:36:34.373Z,25.70
2022-07-25T22:39:01.176Z,25.70
2022-07-25T22:41:27.958Z,25.70
2022-07-25T22:43:57.278Z,25.80
2022-07-25T22:46:28.459Z,25.80
2022-07-25T22:48:55.776Z,25.80
2022-07-25T22:51:23.886Z,25.90
2022-07-25T22:53:51.053Z,25.80
2022-07-25T22:56:18.263Z,25.80
2022-07-25T22:58:45.696Z,25.80
2022-07-25T23:01:15.928Z,25.80
2022-07-25T23:03:42.686Z,25.70
2022-07-25T23:06:09.849Z,25.70
2022-07-25T23:08:36.958Z,25.70
2022-07-25T23:11:06.065Z,25.70
2022-07-25T23:13:34.225Z,25.70
2022-07-25T23:16:01.850Z,25.70
2022-07-25T23:18:30.604Z,25.70
2022-07-25T23:20:57.618Z,25.60
2022-07-25T23:23:24.453Z,25.60
2022-07-25T23:25:51.831Z,25.50
2022-07-25T23:28:18.571Z,25.50
2022-07-25T23:30:45.337Z,25.50
2022-07-25T23:33:12.090Z,25.40
2022-07-25T23:35:39.001Z,25.40
2022-07-25T23:38:05.765Z,25.40
2022-07-25T23:40:32.719Z,25.30
2022-07-25T23:42:59.562Z,25.30
2022-07-25T23:45:27.842Z,25.30
2022-07-25T23:47:55.896Z,25.40
2022-07-25T23:50:23.770Z,25.50
2022-07-25T23:52:50.956Z,25.50
2022-07-25T23:55:17.773Z,25.50
2022-07-25T23:57:44.530Z,25.50
